sensor_id;sensor_type;location;lat;lon;timestamp;pressure;altitude;pressure_sealevel;temperature;humidity
41102;BME280;26845;50.190;19.178;2022-12-07T00:01:27;98204.77;;;0.87;100.00
41102;BME280;26845;50.190;19.178;2022-12-07T00:03:53;98198.73;;;0.85;100.00
41102;BME280;26845;50.190;19.178;2022-12-07T00:06:21;98203.38;;;0.82;100.00
41102;BME280;26845;50.190;19.178;2022-12-07T00:08:47;98203.38;;;0.82;100.00
41102;BME280;26845;50.190;19.178;2022-12-07T00:11:20;98196.52;;;0.79;100.00
41102;BME280;26845;50.190;19.178;2022-12-07T00:13:44;98196.52;;;0.79;100.00
41102;BME280;26845;50.190;19.178;2022-12-07T00:16:16;98200.65;;;0.84;100.00
41102;BME280;26845;50.190;19.178;2022-12-07T00:18:45;98202.30;;;0.83;100.00
41102;BME280;26845;50.190;19.178;2022-12-07T00:21:13;98202.30;;;0.83;100.00
41102;BME280;26845;50.190;19.178;2022-12-07T00:23:45;98193.27;;;0.80;100.00
41102;BME280;26845;50.190;19.178;2022-12-07T00:26:15;98193.23;;;0.75;100.00
41102;BME280;26845;50.190;19.178;2022-12-07T00:28:47;98191.86;;;0.72;100.00
41102;BME280;26845;50.190;19.178;2022-12-07T00:31:17;98192.67;;;0.73;100.00
41102;BME280;26845;50.190;19.178;2022-12-07T00:33:45;98188.02;;;0.73;100.00
41102;BME280;26845;50.190;19.178;2022-12-07T00:36:14;98186.66;;;0.73;100.00
41102;BME280;26845;50.190;19.178;2022-12-07T00:38:41;98187.47;;;0.74;100.00
41102;BME280;26845;50.190;19.178;2022-12-07T00:41:13;98187.75;;;0.72;100.00
41102;BME280;26845;50.190;19.178;2022-12-07T00:43:41;98174.62;;;0.69;100.00
41102;BME280;26845;50.190;19.178;2022-12-07T00:46:08;98179.80;;;0.71;100.00
41102;BME280;26845;50.190;19.178;2022-12-07T00:48:34;98179.80;;;0.71;100.00
41102;BME280;26845;50.190;19.178;2022-12-07T00:51:01;98180.10;;;0.72;100.00
41102;BME280;26845;50.190;19.178;2022-12-07T00:53:28;98176.53;;;0.74;100.00
41102;BME280;26845;50.190;19.178;2022-12-07T00:55:54;98184.20;;;0.77;100.00
41102;BME280;26845;50.190;19.178;2022-12-07T00:58:22;98188.03;;;0.76;100.00
41102;BME280;26845;50.190;19.178;2022-12-07T01:00:49;98179.27;;;0.74;100.00
41102;BME280;26845;50.190;19.178;2022-12-07T01:03:17;98176.02;;;0.74;100.00
41102;BME280;26845;50.190;19.178;2022-12-07T01:05:50;98180.37;;;0.75;100.00
41102;BME280;26845;50.190;19.178;2022-12-07T01:08:17;98175.99;;;0.77;100.00
41102;BME280;26845;50.190;19.178;2022-12-07T01:10:43;98172.45;;;0.79;100.00
41102;BME280;26845;50.190;19.178;2022-12-07T01:13:08;98171.90;;;0.79;100.00
41102;BME280;26845;50.190;19.178;2022-12-07T01:15:34;98169.17;;;0.82;100.00
41102;BME280;26845;50.190;19.178;2022-12-07T01:17:59;98166.73;;;0.83;100.00
41102;BME280;26845;50.190;19.178;2022-12-07T01:20:25;98169.73;;;0.84;100.00
41102;BME280;26845;50.190;19.178;2022-12-07T01:22:52;98162.07;;;0.81;100.00
41102;BME280;26845;50.190;19.178;2022-12-07T01:25:18;98156.31;;;0.82;100.00
41102;BME280;26845;50.190;19.178;2022-12-07T01:27:44;98159.89;;;0.83;100.00
41102;BME280;26845;50.190;19.178;2022-12-07T01:30:11;98162.09;;;0.86;100.00
41102;BME280;26845;50.190;19.178;2022-12-07T01:32:37;98149.77;;;0.83;100.00
41102;BME280;26845;50.190;19.178;2022-12-07T01:35:03;98149.77;;;0.83;100.00
41102;BME280;26845;50.190;19.178;2022-12-07T01:37:38;98156.63;;;0.96;100.00
41102;BME280;26845;50.190;19.178;2022-12-07T01:40:03;98155.02;;;1.00;100.00
41102;BME280;26845;50.190;19.178;2022-12-07T01:42:30;98151.18;;;1.04;100.00
41102;BME280;26845;50.190;19.178;2022-12-07T01:48:08;98147.90;;;1.07;100.00
41102;BME280;26845;50.190;19.178;2022-12-07T01:50:38;98147.90;;;1.07;100.00
41102;BME280;26845;50.190;19.178;2022-12-07T01:53:09;98145.45;;;1.05;100.00
41102;BME280;26845;50.190;19.178;2022-12-07T01:55:39;98141.61;;;1.06;100.00
41102;BME280;26845;50.190;19.178;2022-12-07T01:58:09;98132.02;;;1.04;100.00
41102;BME280;26845;50.190;19.178;2022-12-07T02:00:38;98132.02;;;1.04;100.00
41102;BME280;26845;50.190;19.178;2022-12-07T02:05:44;98142.72;;;1.05;100.00
41102;BME280;26845;50.190;19.178;2022-12-07T02:08:13;98131.75;;;1.00;100.00
41102;BME280;26845;50.190;19.178;2022-12-07T02:10:40;98137.50;;;1.06;100.00
41102;BME280;26845;50.190;19.178;2022-12-07T02:13:15;98142.42;;;1.07;100.00
41102;BME280;26845;50.190;19.178;2022-12-07T02:18:38;98137.23;;;1.05;100.00
41102;BME280;26845;50.190;19.178;2022-12-07T02:26:55;98140.77;;;1.11;100.00
41102;BME280;26845;50.190;19.178;2022-12-07T02:32:30;98136.97;;;1.15;100.00
41102;BME280;26845;50.190;19.178;2022-12-07T02:35:06;98130.40;;;1.18;100.00
41102;BME280;26845;50.190;19.178;2022-12-07T02:43:26;98130.41;;;1.21;100.00
41102;BME280;26845;50.190;19.178;2022-12-07T02:46:01;98118.08;;;1.16;100.00
41102;BME280;26845;50.190;19.178;2022-12-07T02:48:31;98120.26;;;1.16;100.00
41102;BME280;26845;50.190;19.178;2022-12-07T02:51:02;98124.11;;;1.20;100.00
41102;BME280;26845;50.190;19.178;2022-12-07T02:53:40;98124.11;;;1.20;100.00
41102;BME280;26845;50.190;19.178;2022-12-07T02:59:02;98124.13;;;1.25;100.00
41102;BME280;26845;50.190;19.178;2022-12-07T03:02:25;98110.69;;;1.21;100.00
41102;BME280;26845;50.190;19.178;2022-12-07T03:13:57;98119.99;;;1.28;100.00
41102;BME280;26845;50.190;19.178;2022-12-07T03:16:43;98117.26;;;1.30;100.00
41102;BME280;26845;50.190;19.178;2022-12-07T03:19:22;98122.73;;;1.30;100.00
41102;BME280;26845;50.190;19.178;2022-12-07T03:22:00;98124.39;;;1.31;100.00
41102;BME280;26845;50.190;19.178;2022-12-07T03:24:30;98117.27;;;1.33;100.00
41102;BME280;26845;50.190;19.178;2022-12-07T03:27:10;98121.11;;;1.32;100.00
41102;BME280;26845;50.190;19.178;2022-12-07T03:29:36;98117.26;;;1.30;100.00
41102;BME280;26845;50.190;19.178;2022-12-07T03:32:12;98116.73;;;1.31;100.00
41102;BME280;26845;50.190;19.178;2022-12-07T03:40:30;98115.08;;;1.38;100.00
41102;BME280;26845;50.190;19.178;2022-12-07T03:43:00;98110.43;;;1.43;100.00
41102;BME280;26845;50.190;19.178;2022-12-07T03:45:42;98112.35;;;1.45;100.00
41102;BME280;26845;50.190;19.178;2022-12-07T03:48:22;98112.35;;;1.45;100.00
41102;BME280;26845;50.190;19.178;2022-12-07T03:50:59;98103.03;;;1.44;100.00
41102;BME280;26845;50.190;19.178;2022-12-07T03:53:39;98106.33;;;1.46;100.00
41102;BME280;26845;50.190;19.178;2022-12-07T03:56:11;98107.95;;;1.49;100.00
41102;BME280;26845;50.190;19.178;2022-12-07T03:58:38;98107.41;;;1.50;100.00
41102;BME280;26845;50.190;19.178;2022-12-07T04:01:06;98104.95;;;1.46;100.00
41102;BME280;26845;50.190;19.178;2022-12-07T04:03:33;98110.69;;;1.44;100.00
41102;BME280;26845;50.190;19.178;2022-12-07T04:06:00;98110.69;;;1.44;100.00
41102;BME280;26845;50.190;19.178;2022-12-07T04:08:27;98108.77;;;1.45;100.00
41102;BME280;26845;50.190;19.178;2022-12-07T04:10:54;98109.88;;;1.44;100.00
41102;BME280;26845;50.190;19.178;2022-12-07T04:13:20;98105.20;;;1.39;100.00
41102;BME280;26845;50.190;19.178;2022-12-07T04:15:47;98105.20;;;1.39;100.00
41102;BME280;26845;50.190;19.178;2022-12-07T04:18:14;98102.47;;;1.39;100.00
41102;BME280;26845;50.190;19.178;2022-12-07T04:20:40;98110.16;;;1.37;100.00
41102;BME280;26845;50.190;19.178;2022-12-07T04:23:07;98110.16;;;1.37;100.00
41102;BME280;26845;50.190;19.178;2022-12-07T04:25:34;98112.34;;;1.30;100.00
41102;BME280;26845;50.190;19.178;2022-12-07T04:28:00;98112.34;;;1.30;100.00
41102;BME280;26845;50.190;19.178;2022-12-07T04:30:27;98104.67;;;1.24;100.00
41102;BME280;26845;50.190;19.178;2022-12-07T04:32:54;98108.22;;;1.22;100.00
41102;BME280;26845;50.190;19.178;2022-12-07T04:35:20;98113.72;;;1.20;100.00
41102;BME280;26845;50.190;19.178;2022-12-07T04:37:47;98111.23;;;1.16;100.00
41102;BME280;26845;50.190;19.178;2022-12-07T04:40:13;98106.03;;;1.09;100.00
41102;BME280;26845;50.190;19.178;2022-12-07T04:42:40;98112.06;;;1.06;100.00
41102;BME280;26845;50.190;19.178;2022-12-07T04:45:08;98115.05;;;1.02;100.00
41102;BME280;26845;50.190;19.178;2022-12-07T04:47:35;98109.56;;;0.99;100.00
41102;BME280;26845;50.190;19.178;2022-12-07T04:50:02;98111.78;;;1.00;100.00
41102;BME280;26845;50.190;19.178;2022-12-07T04:52:29;98111.77;;;0.97;100.00
41102;BME280;26845;50.190;19.178;2022-12-07T04:54:56;98111.77;;;0.97;100.00
41102;BME280;26845;50.190;19.178;2022-12-07T04:57:23;98110.41;;;0.97;100.00
41102;BME280;26845;50.190;19.178;2022-12-07T04:59:49;98114.50;;;0.95;100.00
41102;BME280;26845;50.190;19.178;2022-12-07T05:02:16;98115.58;;;0.96;100.00
41102;BME280;26845;50.190;19.178;2022-12-07T05:04:43;98113.94;;;0.93;100.00
41102;BME280;26845;50.190;19.178;2022-12-07T05:07:09;98113.94;;;0.93;100.00
41102;BME280;26845;50.190;19.178;2022-12-07T05:09:36;98115.58;;;0.94;100.00
41102;BME280;26845;50.190;19.178;2022-12-07T05:12:04;98119.69;;;0.96;100.00
41102;BME280;26845;50.190;19.178;2022-12-07T05:14:31;98119.69;;;0.96;100.00
41102;BME280;26845;50.190;19.178;2022-12-07T05:16:58;98109.27;;;0.88;100.00
41102;BME280;26845;50.190;19.178;2022-12-07T05:19:24;98118.31;;;0.86;100.00
41102;BME280;26845;50.190;19.178;2022-12-07T05:21:52;98116.39;;;0.84;100.00
41102;BME280;26845;50.190;19.178;2022-12-07T05:24:19;98115.83;;;0.82;100.00
41102;BME280;26845;50.190;19.178;2022-12-07T05:26:46;98115.28;;;0.85;100.00
41102;BME280;26845;50.190;19.178;2022-12-07T05:29:15;98119.69;;;0.86;100.00
41102;BME280;26845;50.190;19.178;2022-12-07T05:31:43;98120.23;;;0.83;100.00
41102;BME280;26845;50.190;19.178;2022-12-07T05:34:10;98119.93;;;0.82;100.00
41102;BME280;26845;50.190;19.178;2022-12-07T05:36:37;98115.83;;;0.82;100.00
41102;BME280;26845;50.190;19.178;2022-12-07T05:39:04;98113.08;;;0.79;100.00
41102;BME280;26845;50.190;19.178;2022-12-07T05:41:31;98117.73;;;0.79;100.00
41102;BME280;26845;50.190;19.178;2022-12-07T05:44:16;98120.77;;;0.77;100.00
41102;BME280;26845;50.190;19.178;2022-12-07T05:46:43;98118.55;;;0.79;100.00
41102;BME280;26845;50.190;19.178;2022-12-07T05:49:09;98115.82;;;0.79;100.00
41102;BME280;26845;50.190;19.178;2022-12-07T05:51:36;98116.11;;;0.78;100.00
41102;BME280;26845;50.190;19.178;2022-12-07T05:54:03;98116.91;;;0.76;100.00
41102;BME280;26845;50.190;19.178;2022-12-07T05:56:29;98115.27;;;0.72;100.00
41102;BME280;26845;50.190;19.178;2022-12-07T05:58:56;98115.27;;;0.72;100.00
41102;BME280;26845;50.190;19.178;2022-12-07T06:01:42;98109.52;;;0.69;100.00
41102;BME280;26845;50.190;19.178;2022-12-07T06:04:08;98116.91;;;0.65;100.00
41102;BME280;26845;50.190;19.178;2022-12-07T06:06:35;98116.91;;;0.65;100.00
41102;BME280;26845;50.190;19.178;2022-12-07T06:09:03;98114.67;;;0.62;100.00
41102;BME280;26845;50.190;19.178;2022-12-07T06:11:29;98114.67;;;0.62;100.00
41102;BME280;26845;50.190;19.178;2022-12-07T06:14:14;98113.59;;;0.61;100.00
41102;BME280;26845;50.190;19.178;2022-12-07T06:16:41;98117.97;;;0.62;100.00
41102;BME280;26845;50.190;19.178;2022-12-07T06:19:08;98117.97;;;0.62;100.00
41102;BME280;26845;50.190;19.178;2022-12-07T06:21:35;98115.52;;;0.63;100.00
41102;BME280;26845;50.190;19.178;2022-12-07T06:24:02;98120.70;;;0.64;100.00
41102;BME280;26845;50.190;19.178;2022-12-07T06:26:29;98126.18;;;0.64;100.00
41102;BME280;26845;50.190;19.178;2022-12-07T06:28:55;98134.69;;;0.65;100.00
41102;BME280;26845;50.190;19.178;2022-12-07T06:31:22;98125.92;;;0.66;100.00
41102;BME280;26845;50.190;19.178;2022-12-07T06:33:49;98134.14;;;0.69;100.00
41102;BME280;26845;50.190;19.178;2022-12-07T06:36:15;98136.86;;;0.71;100.00
41102;BME280;26845;50.190;19.178;2022-12-07T06:38:44;98136.86;;;0.71;100.00
41102;BME280;26845;50.190;19.178;2022-12-07T06:41:13;98136.34;;;0.72;100.00
41102;BME280;26845;50.190;19.178;2022-12-07T06:43:39;98138.51;;;0.70;100.00
41102;BME280;26845;50.190;19.178;2022-12-07T06:46:06;98139.88;;;0.70;100.00
41102;BME280;26845;50.190;19.178;2022-12-07T06:48:33;98141.80;;;0.72;100.00
41102;BME280;26845;50.190;19.178;2022-12-07T06:51:00;98149.73;;;0.73;100.00
41102;BME280;26845;50.190;19.178;2022-12-07T06:53:27;98146.43;;;0.71;100.00
41102;BME280;26845;50.190;19.178;2022-12-07T06:55:53;98145.61;;;0.71;100.00
41102;BME280;26845;50.190;19.178;2022-12-07T06:58:20;98151.38;;;0.69;100.00
41102;BME280;26845;50.190;19.178;2022-12-07T07:00:48;98153.55;;;0.70;100.00
41102;BME280;26845;50.190;19.178;2022-12-07T07:03:16;98157.11;;;0.70;100.00
41102;BME280;26845;50.190;19.178;2022-12-07T07:05:43;98153.27;;;0.71;100.00
41102;BME280;26845;50.190;19.178;2022-12-07T07:08:11;98146.45;;;0.69;100.00
41102;BME280;26845;50.190;19.178;2022-12-07T07:10:39;98151.09;;;0.65;100.00
41102;BME280;26845;50.190;19.178;2022-12-07T07:13:06;98151.09;;;0.65;100.00
41102;BME280;26845;50.190;19.178;2022-12-07T07:15:34;98151.91;;;0.66;100.00
41102;BME280;26845;50.190;19.178;2022-12-07T07:18:03;98153.28;;;0.66;100.00
41102;BME280;26845;50.190;19.178;2022-12-07T07:20:30;98153.83;;;0.65;100.00
41102;BME280;26845;50.190;19.178;2022-12-07T07:22:56;98154.91;;;0.67;100.00
41102;BME280;26845;50.190;19.178;2022-12-07T07:25:23;98159.29;;;0.71;100.00
41102;BME280;26845;50.190;19.178;2022-12-07T07:27:50;98150.80;;;0.67;100.00
41102;BME280;26845;50.190;19.178;2022-12-07T07:30:16;98154.37;;;0.70;100.00
41102;BME280;26845;50.190;19.178;2022-12-07T07:32:43;98160.12;;;0.76;100.00
41102;BME280;26845;50.190;19.178;2022-12-07T07:35:10;98160.12;;;0.76;100.00
41102;BME280;26845;50.190;19.178;2022-12-07T07:37:36;98164.52;;;0.75;100.00
41102;BME280;26845;50.190;19.178;2022-12-07T07:40:04;98150.83;;;0.72;100.00
41102;BME280;26845;50.190;19.178;2022-12-07T07:42:32;98157.92;;;0.71;100.00
41102;BME280;26845;50.190;19.178;2022-12-07T07:44:58;98157.92;;;0.71;100.00
41102;BME280;26845;50.190;19.178;2022-12-07T07:47:25;98161.48;;;0.74;100.00
41102;BME280;26845;50.190;19.178;2022-12-07T07:49:51;98169.17;;;0.74;100.00
41102;BME280;26845;50.190;19.178;2022-12-07T07:52:19;98164.22;;;0.74;100.00
41102;BME280;26845;50.190;19.178;2022-12-07T07:54:46;98159.59;;;0.74;100.00
41102;BME280;26845;50.190;19.178;2022-12-07T07:57:14;98159.86;;;0.75;100.00
41102;BME280;26845;50.190;19.178;2022-12-07T07:59:43;98164.53;;;0.77;100.00
41102;BME280;26845;50.190;19.178;2022-12-07T08:02:13;98162.31;;;0.77;100.00
41102;BME280;26845;50.190;19.178;2022-12-07T08:04:41;98162.31;;;0.77;100.00
41102;BME280;26845;50.190;19.178;2022-12-07T08:07:09;98162.06;;;0.78;100.00
41102;BME280;26845;50.190;19.178;2022-12-07T08:09:38;98162.89;;;0.81;100.00
41102;BME280;26845;50.190;19.178;2022-12-07T08:12:05;98166.98;;;0.81;100.00
41102;BME280;26845;50.190;19.178;2022-12-07T08:14:32;98166.44;;;0.82;100.00
41102;BME280;26845;50.190;19.178;2022-12-07T08:17:00;98159.34;;;0.83;100.00
41102;BME280;26845;50.190;19.178;2022-12-07T08:19:27;98163.16;;;0.85;100.00
41102;BME280;26845;50.190;19.178;2022-12-07T08:21:55;98167.55;;;0.83;100.00
41102;BME280;26845;50.190;19.178;2022-12-07T08:24:22;98164.83;;;0.86;100.00
41102;BME280;26845;50.190;19.178;2022-12-07T08:26:51;98177.68;;;0.90;100.00
41102;BME280;26845;50.190;19.178;2022-12-07T08:29:18;98176.89;;;0.95;100.00
41102;BME280;26845;50.190;19.178;2022-12-07T08:31:45;98173.05;;;0.99;100.00
41102;BME280;26845;50.190;19.178;2022-12-07T08:34:12;98173.05;;;0.99;100.00
41102;BME280;26845;50.190;19.178;2022-12-07T08:36:39;98180.45;;;1.01;100.00
41102;BME280;26845;50.190;19.178;2022-12-07T08:39:06;98188.13;;;1.04;100.00
41102;BME280;26845;50.190;19.178;2022-12-07T08:41:33;98183.21;;;1.06;100.00
41102;BME280;26845;50.190;19.178;2022-12-07T08:43:59;98179.91;;;1.01;100.00
41102;BME280;26845;50.190;19.178;2022-12-07T08:46:30;98179.91;;;1.01;100.00
41102;BME280;26845;50.190;19.178;2022-12-07T08:49:16;98186.75;;;1.04;100.00
41102;BME280;26845;50.190;19.178;2022-12-07T08:51:42;98186.77;;;1.06;100.00
41102;BME280;26845;50.190;19.178;2022-12-07T08:54:11;98192.52;;;1.10;100.00
41102;BME280;26845;50.190;19.178;2022-12-07T08:56:41;98192.53;;;1.15;100.00
41102;BME280;26845;50.190;19.178;2022-12-07T08:59:09;98195.83;;;1.17;100.00
41102;BME280;26845;50.190;19.178;2022-12-07T09:01:36;98186.25;;;1.17;100.00
41102;BME280;26845;50.190;19.178;2022-12-07T09:04:06;98197.73;;;1.22;100.00
41102;BME280;26845;50.190;19.178;2022-12-07T09:06:34;98200.20;;;1.18;100.00
41102;BME280;26845;50.190;19.178;2022-12-07T09:09:01;98199.64;;;1.16;100.00
41102;BME280;26845;50.190;19.178;2022-12-07T09:11:29;98190.33;;;1.09;100.00
41102;BME280;26845;50.190;19.178;2022-12-07T09:13:56;98194.15;;;1.11;100.00
41102;BME280;26845;50.190;19.178;2022-12-07T09:16:23;98183.20;;;1.11;100.00
41102;BME280;26845;50.190;19.178;2022-12-07T09:18:50;98183.20;;;1.11;100.00
41102;BME280;26845;50.190;19.178;2022-12-07T09:21:16;98186.23;;;1.15;100.00
41102;BME280;26845;50.190;19.178;2022-12-07T09:23:43;98187.60;;;1.22;100.00
41102;BME280;26845;50.190;19.178;2022-12-07T09:26:10;98178.58;;;1.22;100.00
41102;BME280;26845;50.190;19.178;2022-12-07T09:28:38;98178.58;;;1.22;100.00
41102;BME280;26845;50.190;19.178;2022-12-07T09:31:05;98180.50;;;1.24;100.00
41102;BME280;26845;50.190;19.178;2022-12-07T09:33:32;98167.38;;;1.28;100.00
41102;BME280;26845;50.190;19.178;2022-12-07T09:36:00;98167.38;;;1.28;100.00
41102;BME280;26845;50.190;19.178;2022-12-07T09:38:27;98177.77;;;1.37;100.00
41102;BME280;26845;50.190;19.178;2022-12-07T09:40:56;98173.12;;;1.42;100.00
41102;BME280;26845;50.190;19.178;2022-12-07T09:43:24;98167.65;;;1.47;100.00
41102;BME280;26845;50.190;19.178;2022-12-07T09:45:54;98162.45;;;1.56;100.00
41102;BME280;26845;50.190;19.178;2022-12-07T09:48:31;98162.45;;;1.56;100.00
41102;BME280;26845;50.190;19.178;2022-12-07T09:51:00;98161.08;;;1.58;100.00
41102;BME280;26845;50.190;19.178;2022-12-07T09:53:33;98156.42;;;1.59;100.00
41102;BME280;26845;50.190;19.178;2022-12-07T09:56:02;98152.05;;;1.63;100.00
41102;BME280;26845;50.190;19.178;2022-12-07T09:58:31;98149.84;;;1.70;100.00
41102;BME280;26845;50.190;19.178;2022-12-07T10:02:04;98149.84;;;1.73;100.00
41102;BME280;26845;50.190;19.178;2022-12-07T10:03:47;98145.47;;;1.77;100.00
41102;BME280;26845;50.190;19.178;2022-12-07T10:06:17;98143.00;;;1.86;100.00
41102;BME280;26845;50.190;19.178;2022-12-07T10:08:44;98127.08;;;1.90;100.00
41102;BME280;26845;50.190;19.178;2022-12-07T10:11:11;98115.55;;;1.98;100.00
41102;BME280;26845;50.190;19.178;2022-12-07T10:13:41;98115.55;;;1.98;100.00
41102;BME280;26845;50.190;19.178;2022-12-07T10:16:32;98121.84;;;2.04;100.00
41102;BME280;26845;50.190;19.178;2022-12-07T10:19:29;98123.47;;;2.10;100.00
41102;BME280;26845;50.190;19.178;2022-12-07T10:22:10;98123.47;;;2.10;100.00
41102;BME280;26845;50.190;19.178;2022-12-07T10:24:42;98121.27;;;2.15;100.00
41102;BME280;26845;50.190;19.178;2022-12-07T10:27:20;98114.41;;;2.17;100.00
41102;BME280;26845;50.190;19.178;2022-12-07T10:29:50;98106.44;;;2.26;100.00
41102;BME280;26845;50.190;19.178;2022-12-07T10:35:16;98099.23;;;2.43;100.00
41102;BME280;26845;50.190;19.178;2022-12-07T10:37:41;98099.73;;;2.53;100.00
41102;BME280;26845;50.190;19.178;2022-12-07T10:49:10;98093.27;;;2.83;100.00
41102;BME280;26845;50.190;19.178;2022-12-07T10:52:00;98095.13;;;2.90;100.00
41102;BME280;26845;50.190;19.178;2022-12-07T11:00:39;98088.12;;;2.74;100.00
41102;BME280;26845;50.190;19.178;2022-12-07T11:03:33;98095.49;;;2.76;100.00
41102;BME280;26845;50.190;19.178;2022-12-07T11:09:38;98082.34;;;2.73;100.00
41102;BME280;26845;50.190;19.178;2022-12-07T11:12:59;98091.12;;;2.72;100.00
41102;BME280;26845;50.190;19.178;2022-12-07T11:15:48;98087.57;;;2.72;100.00
41102;BME280;26845;50.190;19.178;2022-12-07T11:18:27;98078.55;;;2.66;100.00
41102;BME280;26845;50.190;19.178;2022-12-07T11:21:04;98078.80;;;2.69;100.00
41102;BME280;26845;50.190;19.178;2022-12-07T11:24:13;98084.27;;;2.72;100.00
41102;BME280;26845;50.190;19.178;2022-12-07T11:29:55;98076.56;;;2.79;100.00
41102;BME280;26845;50.190;19.178;2022-12-07T11:32:49;98066.64;;;2.83;100.00
41102;BME280;26845;50.190;19.178;2022-12-07T11:38:47;98067.20;;;2.83;100.00
41102;BME280;26845;50.190;19.178;2022-12-07T11:41:22;98060.91;;;2.80;100.00
41102;BME280;26845;50.190;19.178;2022-12-07T11:43:57;98062.52;;;2.83;100.00
41102;BME280;26845;50.190;19.178;2022-12-07T11:46:45;98058.97;;;2.83;100.00
41102;BME280;26845;50.190;19.178;2022-12-07T11:49:19;98051.86;;;2.79;99.41
41102;BME280;26845;50.190;19.178;2022-12-07T11:51:45;98048.83;;;2.78;98.55
41102;BME280;26845;50.190;19.178;2022-12-07T11:54:18;98053.23;;;2.79;99.75
41102;BME280;26845;50.190;19.178;2022-12-07T11:56:49;98042.83;;;2.76;97.82
41102;BME280;26845;50.190;19.178;2022-12-07T11:59:23;98042.55;;;2.73;98.48
41102;BME280;26845;50.190;19.178;2022-12-07T12:02:03;98048.33;;;2.74;99.84
41102;BME280;26845;50.190;19.178;2022-12-07T12:04:50;98041.99;;;2.73;99.86
41102;BME280;26845;50.190;19.178;2022-12-07T12:07:21;98039.25;;;2.73;99.83
41102;BME280;26845;50.190;19.178;2022-12-07T12:21:19;98053.16;;;2.87;97.55
41102;BME280;26845;50.190;19.178;2022-12-07T12:23:58;98043.34;;;3.15;98.80
41102;BME280;26845;50.190;19.178;2022-12-07T12:26:36;98041.11;;;3.22;97.21
41102;BME280;26845;50.190;19.178;2022-12-07T12:29:19;98049.62;;;3.21;95.73
41102;BME280;26845;50.190;19.178;2022-12-07T12:31:40;98048.27;;;3.18;97.32
41102;BME280;26845;50.190;19.178;2022-12-07T12:35:02;98044.47;;;3.14;96.15
41102;BME280;26845;50.190;19.178;2022-12-07T12:42:55;98039.28;;;3.07;96.90
41102;BME280;26845;50.190;19.178;2022-12-07T12:47:58;98034.62;;;3.10;96.50
41102;BME280;26845;50.190;19.178;2022-12-07T12:50:35;98032.70;;;3.08;96.54
41102;BME280;26845;50.190;19.178;2022-12-07T12:58:27;98032.48;;;3.02;95.40
41102;BME280;26845;50.190;19.178;2022-12-07T13:04:14;98021.21;;;3.01;94.91
41102;BME280;26845;50.190;19.178;2022-12-07T13:06:36;98009.70;;;3.02;94.71
41102;BME280;26845;50.190;19.178;2022-12-07T13:09:15;98021.50;;;3.02;96.15
41102;BME280;26845;50.190;19.178;2022-12-07T13:11:40;98017.09;;;3.01;94.68
41102;BME280;26845;50.190;19.178;2022-12-07T13:20:04;98019.33;;;2.99;92.68
41102;BME280;26845;50.190;19.178;2022-12-07T13:22:38;98018.75;;;3.02;94.48
41102;BME280;26845;50.190;19.178;2022-12-07T13:25:18;98017.64;;;3.03;94.73
41102;BME280;26845;50.190;19.178;2022-12-07T13:27:55;98018.73;;;3.05;95.06
41102;BME280;26845;50.190;19.178;2022-12-07T13:30:23;98020.38;;;3.03;92.56
41102;BME280;26845;50.190;19.178;2022-12-07T13:32:55;98030.80;;;3.04;92.86
41102;BME280;26845;50.190;19.178;2022-12-07T13:38:02;98033.28;;;3.05;93.88
41102;BME280;26845;50.190;19.178;2022-12-07T13:40:34;98039.59;;;3.03;94.12
41102;BME280;26845;50.190;19.178;2022-12-07T13:43:04;98035.23;;;3.02;92.38
41102;BME280;26845;50.190;19.178;2022-12-07T13:45:33;98041.55;;;3.00;92.18
41102;BME280;26845;50.190;19.178;2022-12-07T13:48:22;98043.48;;;3.00;92.31
41102;BME280;26845;50.190;19.178;2022-12-07T13:51:01;98047.05;;;2.98;93.43
41102;BME280;26845;50.190;19.178;2022-12-07T13:53:32;98041.00;;;2.98;94.21
41102;BME280;26845;50.190;19.178;2022-12-07T13:56:01;98042.66;;;2.99;92.65
41102;BME280;26845;50.190;19.178;2022-12-07T13:58:33;98043.23;;;2.96;92.88
41102;BME280;26845;50.190;19.178;2022-12-07T14:01:01;98036.97;;;2.90;89.89
41102;BME280;26845;50.190;19.178;2022-12-07T14:03:35;98043.28;;;2.88;92.27
41102;BME280;26845;50.190;19.178;2022-12-07T14:08:43;98054.55;;;2.84;91.30
41102;BME280;26845;50.190;19.178;2022-12-07T14:11:19;98057.03;;;2.83;89.88
41102;BME280;26845;50.190;19.178;2022-12-07T14:13:56;98053.74;;;2.81;87.20
41102;BME280;26845;50.190;19.178;2022-12-07T14:16:32;98059.80;;;2.78;89.55
41102;BME280;26845;50.190;19.178;2022-12-07T14:19:04;98058.19;;;2.75;90.46
41102;BME280;26845;50.190;19.178;2022-12-07T14:21:33;98053.27;;;2.72;87.50
41102;BME280;26845;50.190;19.178;2022-12-07T14:26:46;98055.77;;;2.68;89.25
41102;BME280;26845;50.190;19.178;2022-12-07T14:32:17;98055.22;;;2.66;90.45
41102;BME280;26845;50.190;19.178;2022-12-07T14:35:01;98065.90;;;2.67;89.16
41102;BME280;26845;50.190;19.178;2022-12-07T14:37:31;98060.70;;;2.68;90.76
41102;BME280;26845;50.190;19.178;2022-12-07T14:39:58;98070.02;;;2.67;89.71
41102;BME280;26845;50.190;19.178;2022-12-07T14:42:27;98066.20;;;2.66;90.06
41102;BME280;26845;50.190;19.178;2022-12-07T14:44:58;98064.57;;;2.65;90.58
41102;BME280;26845;50.190;19.178;2022-12-07T14:47:32;98067.02;;;2.64;90.83
41102;BME280;26845;50.190;19.178;2022-12-07T14:50:05;98078.30;;;2.62;88.20
41102;BME280;26845;50.190;19.178;2022-12-07T14:52:40;98076.11;;;2.62;89.05
41102;BME280;26845;50.190;19.178;2022-12-07T14:55:22;98081.60;;;2.62;89.34
41102;BME280;26845;50.190;19.178;2022-12-07T14:57:53;98079.94;;;2.61;89.58
41102;BME280;26845;50.190;19.178;2022-12-07T15:00:27;98079.94;;;2.61;88.76
41102;BME280;26845;50.190;19.178;2022-12-07T15:02:51;98087.11;;;2.57;89.64
41102;BME280;26845;50.190;19.178;2022-12-07T15:05:19;98089.56;;;2.56;88.01